createdAt,value
2018-06-27T07:40:40.888Z,15.78
2018-06-27T07:43:09.376Z,13.90
2018-06-27T07:45:38.006Z,15.55
2018-06-27T07:48:06.510Z,15.95
2018-06-27T07:50:34.994Z,15.58
2018-06-27T07:53:03.559Z,16.30
2018-06-27T07:55:32.999Z,15.53
2018-06-27T07:58:01.529Z,12.78
2018-06-27T08:00:30.427Z,16.77
2018-06-27T08:02:58.965Z,16.32
2018-06-27T08:05:27.601Z,16.45
2018-06-27T08:07:56.133Z,14.23
2018-06-27T08:10:24.646Z,15.65
2018-06-27T08:12:53.129Z,12.33
2018-06-27T08:15:21.727Z,15.13
2018-06-27T08:17:50.314Z,16.20
2018-06-27T08:20:18.945Z,12.18
2018-06-27T08:22:47.581Z,12.73
2018-06-27T08:25:16.151Z,15.13
2018-06-27T08:27:44.661Z,15.23
2018-06-27T08:30:14.010Z,16.00
2018-06-27T08:32:42.511Z,13.70
2018-06-27T08:35:11.090Z,13.60
2018-06-27T08:37:39.647Z,11.70
2018-06-27T08:40:08.194Z,12.33
2018-06-27T08:42:36.697Z,15.20
2018-06-27T08:45:05.328Z,13.28
2018-06-27T08:47:33.968Z,10.40
2018-06-27T08:50:02.564Z,11.57
2018-06-27T08:52:31.069Z,12.98
2018-06-27T08:54:59.646Z,11.97
2018-06-27T08:57:28.166Z,13.62
2018-06-27T08:59:56.710Z,12.85
2018-06-27T09:02:25.230Z,10.85
2018-06-27T09:04:53.846Z,11.25
2018-06-27T09:07:22.346Z,12.82
2018-06-27T09:09:50.901Z,10.78
2018-06-27T09:12:19.433Z,11.33
2018-06-27T09:14:47.986Z,10.32
2018-06-27T09:17:16.519Z,9.58
2018-06-27T09:19:45.099Z,9.80
2018-06-27T09:22:13.625Z,10.78
2018-06-27T09:24:42.236Z,9.25
2018-06-27T09:27:10.816Z,11.93
2018-06-27T09:29:40.380Z,9.83
2018-06-27T09:32:08.914Z,8.83
2018-06-27T09:34:37.478Z,8.48
2018-06-27T09:37:06.057Z,8.08
2018-06-27T09:39:35.173Z,10.50
2018-06-27T09:42:03.752Z,11.25
2018-06-27T09:44:33.430Z,10.78
2018-06-27T09:47:02.030Z,10.25
2018-06-27T09:49:30.552Z,11.12
2018-06-27T09:52:00.907Z,10.45
2018-06-27T09:54:30.170Z,9.60
2018-06-27T09:56:58.766Z,10.05
2018-06-27T09:59:28.828Z,9.60
2018-06-27T10:01:58.675Z,9.90
2018-06-27T10:04:28.206Z,10.00
2018-06-27T10:06:56.907Z,9.23
2018-06-27T10:09:25.446Z,8.78
2018-06-27T10:11:54.085Z,8.40
2018-06-27T10:14:22.991Z,7.53
2018-06-27T10:16:52.097Z,8.98
2018-06-27T10:19:21.913Z,7.83
2018-06-27T10:21:50.453Z,8.50
2018-06-27T10:24:19.151Z,8.00
2018-06-27T10:26:49.640Z,8.10
2018-06-27T10:29:20.062Z,7.15
2018-06-27T10:31:49.918Z,7.22
2018-06-27T10:34:19.250Z,6.70
2018-06-27T10:36:48.907Z,7.15
2018-06-27T10:39:17.576Z,6.92
2018-06-27T10:41:46.232Z,7.37
2018-06-27T10:44:14.961Z,6.90
2018-06-27T10:46:44.405Z,5.78
2018-06-27T10:49:13.711Z,5.50
2018-06-27T10:51:42.594Z,5.33
2018-06-27T10:54:11.215Z,6.17
2018-06-27T10:56:39.710Z,5.53
2018-06-27T10:59:07.933Z,5.85
2018-06-27T11:01:36.449Z,5.15
2018-06-27T11:04:05.066Z,4.95
2018-06-27T11:06:33.574Z,5.33
2018-06-27T11:09:02.091Z,4.97
2018-06-27T11:11:30.630Z,4.60
2018-06-27T11:13:59.139Z,4.08
2018-06-27T11:16:27.701Z,3.20
2018-06-27T11:18:56.392Z,3.50
2018-06-27T11:21:24.930Z,3.65
2018-06-27T11:23:53.441Z,3.22
2018-06-27T11:26:21.991Z,3.02
2018-06-27T11:28:50.518Z,3.50
2018-06-27T11:31:19.070Z,3.20
2018-06-27T11:33:47.634Z,2.83
2018-06-27T11:36:16.137Z,3.20
2018-06-27T11:38:44.767Z,2.98
2018-06-27T11:41:13.260Z,2.98
2018-06-27T11:43:41.837Z,3.08
2018-06-27T11:46:10.393Z,2.60
2018-06-27T11:48:39.055Z,2.80
2018-06-27T11:51:07.726Z,3.12
2018-06-27T11:53:36.401Z,2.98
2018-06-27T11:56:05.175Z,3.00
2018-06-27T11:58:33.898Z,2.62
2018-06-27T12:01:02.689Z,2.40
2018-06-27T12:03:31.300Z,2.80
2018-06-27T12:05:59.829Z,2.83
2018-06-27T12:08:28.373Z,2.77
2018-06-27T12:10:56.842Z,2.75
2018-06-27T12:13:25.399Z,2.90
2018-06-27T12:15:54.038Z,2.25
2018-06-27T12:18:22.544Z,2.77
2018-06-27T12:20:51.067Z,2.58
2018-06-27T12:23:19.563Z,2.58
2018-06-27T12:25:48.254Z,2.50
2018-06-27T12:28:16.778Z,2.62
2018-06-27T12:30:45.282Z,2.37
2018-06-27T12:33:13.775Z,2.75
2018-06-27T12:35:42.314Z,2.95
2018-06-27T12:38:10.837Z,2.70
2018-06-27T12:40:39.395Z,2.83
2018-06-27T12:43:07.967Z,2.90
2018-06-27T12:45:36.623Z,2.72
2018-06-27T12:48:05.190Z,2.65
2018-06-27T12:50:33.664Z,2.92
2018-06-27T12:53:02.165Z,2.80
2018-06-27T12:55:30.776Z,2.70
2018-06-27T12:57:59.277Z,2.37
2018-06-27T13:00:28.402Z,2.80
2018-06-27T13:02:56.839Z,2.85
2018-06-27T13:05:25.431Z,2.40
2018-06-27T13:07:53.955Z,2.50
2018-06-27T13:10:22.512Z,2.72
2018-06-27T13:12:51.012Z,2.50
2018-06-27T13:15:19.534Z,2.70
2018-06-27T13:17:48.074Z,2.62
2018-06-27T13:20:16.568Z,2.40
2018-06-27T13:22:45.052Z,2.55
2018-06-27T13:25:13.683Z,2.40
2018-06-27T13:27:42.219Z,2.42
2018-06-27T13:30:10.780Z,2.50
2018-06-27T13:32:39.267Z,2.30
2018-06-27T13:35:07.909Z,2.25
2018-06-27T13:37:36.469Z,2.40
2018-06-27T13:40:05.029Z,2.40
2018-06-27T13:42:33.565Z,2.27
2018-06-27T13:45:02.146Z,2.58
2018-06-27T13:47:31.109Z,2.30
2018-06-27T13:49:59.665Z,2.45
2018-06-27T13:52:28.138Z,2.30
2018-06-27T13:54:57.950Z,2.10
2018-06-27T13:57:27.859Z,2.25
2018-06-27T13:59:57.822Z,2.40
2018-06-27T14:02:26.356Z,3.25
2018-06-27T14:04:55.026Z,2.20
2018-06-27T14:07:23.532Z,2.58
2018-06-27T14:09:52.087Z,2.37
2018-06-27T14:12:20.638Z,2.10
2018-06-27T14:14:50.033Z,2.30
2018-06-27T14:17:18.569Z,3.15
2018-06-27T14:19:47.088Z,3.70
2018-06-27T14:22:15.679Z,5.42
2018-06-27T14:24:44.261Z,7.80
2018-06-27T14:27:12.848Z,5.70
2018-06-27T14:29:41.432Z,3.60
2018-06-27T14:32:09.992Z,3.20
2018-06-27T14:34:39.106Z,2.62
2018-06-27T14:37:07.739Z,2.60
2018-06-27T14:39:36.291Z,3.10
2018-06-27T14:42:04.906Z,4.90
2018-06-27T14:44:33.589Z,7.35
2018-06-27T14:47:03.038Z,12.13
2018-06-27T14:49:31.565Z,6.42
2018-06-27T14:52:00.084Z,4.10
2018-06-27T14:54:28.968Z,3.83
2018-06-27T14:56:57.541Z,3.95
2018-06-27T14:59:26.420Z,5.35
2018-06-27T15:01:55.704Z,8.45
2018-06-27T15:04:24.418Z,13.60
2018-06-27T15:06:53.150Z,18.12
2018-06-27T15:09:22.474Z,18.23
2018-06-27T15:11:50.985Z,8.68
2018-06-27T15:14:19.772Z,4.72
2018-06-27T15:16:48.380Z,3.80
2018-06-27T15:19:16.855Z,3.25
2018-06-27T15:21:45.646Z,5.10
2018-06-27T15:24:14.239Z,5.12
2018-06-27T15:26:43.310Z,9.53
2018-06-27T15:29:11.903Z,12.43
2018-06-27T15:31:40.493Z,10.40
2018-06-27T15:34:09.591Z,9.50
2018-06-27T15:36:38.179Z,10.68
2018-06-27T15:39:08.264Z,15.58
2018-06-27T15:41:37.213Z,16.00
2018-06-27T15:44:06.192Z,14.50
2018-06-27T15:46:34.791Z,11.50
2018-06-27T15:49:04.030Z,7.30
2018-06-27T15:51:32.548Z,5.05
2018-06-27T15:54:03.698Z,3.33
2018-06-27T15:56:32.954Z,2.98
2018-06-27T15:59:01.806Z,3.55
2018-06-27T16:01:30.529Z,5.30
2018-06-27T16:03:59.122Z,6.87
2018-06-27T16:06:27.664Z,8.30
2018-06-27T16:08:56.238Z,9.90
2018-06-27T16:11:24.830Z,8.43
2018-06-27T16:13:53.334Z,8.53
2018-06-27T16:16:22.003Z,10.70
2018-06-27T16:18:50.545Z,12.35
2018-06-27T16:21:19.153Z,16.17
2018-06-27T16:23:48.652Z,18.87
2018-06-27T16:26:17.183Z,22.15
2018-06-27T16:28:45.900Z,23.92
2018-06-27T16:31:14.433Z,25.32
2018-06-27T16:33:42.950Z,27.52
2018-06-27T16:36:11.481Z,28.98
2018-06-27T16:38:40.059Z,25.57
2018-06-27T16:41:08.651Z,25.43
2018-06-27T16:43:36.980Z,25.48
2018-06-27T16:46:06.328Z,26.73
2018-06-27T16:48:34.945Z,26.02
2018-06-27T16:51:03.589Z,25.17
2018-06-27T16:53:32.049Z,24.35
2018-06-27T16:56:00.639Z,23.50
2018-06-27T16:58:29.184Z,23.77
2018-06-27T17:00:57.773Z,17.60
2018-06-27T17:03:26.268Z,13.35
2018-06-27T17:05:54.790Z,7.70
2018-06-27T17:08:23.472Z,2.80
2018-06-27T17:10:52.068Z,2.17
2018-06-27T17:13:20.601Z,1.92
2018-06-27T17:15:49.168Z,1.70
2018-06-27T17:18:17.694Z,1.60
2018-06-27T17:20:45.913Z,1.87
2018-06-27T17:23:14.430Z,1.67
2018-06-27T17:25:42.979Z,1.70
2018-06-27T17:28:11.498Z,1.90
2018-06-27T17:30:40.059Z,1.40
2018-06-27T17:33:08.562Z,1.67
2018-06-27T17:35:37.128Z,1.47
2018-06-27T17:38:05.660Z,1.27
2018-06-27T17:40:34.180Z,1.30
2018-06-27T17:43:02.765Z,1.72
2018-06-27T17:45:31.443Z,1.50
2018-06-27T17:48:00.047Z,1.87
2018-06-27T17:50:28.563Z,1.90
2018-06-27T17:52:57.079Z,1.67
2018-06-27T17:55:25.736Z,1.17
2018-06-27T17:57:54.258Z,1.60
2018-06-27T18:00:22.840Z,1.37
2018-06-27T18:02:51.339Z,1.20
2018-06-27T18:05:19.921Z,1.30
2018-06-27T18:07:48.448Z,1.40
2018-06-27T18:10:16.946Z,1.67
2018-06-27T18:12:45.636Z,1.35
2018-06-27T18:15:14.263Z,1.42
2018-06-27T18:17:42.856Z,1.30
2018-06-27T18:20:11.416Z,1.57
2018-06-27T18:22:39.970Z,1.27
2018-06-27T18:25:08.714Z,1.30
2018-06-27T18:27:37.266Z,1.10
2018-06-27T18:30:06.802Z,1.20
2018-06-27T18:32:35.343Z,1.40
2018-06-27T18:35:03.923Z,1.37
2018-06-27T18:37:32.440Z,1.45
2018-06-27T18:40:00.947Z,1.30
2018-06-27T18:42:29.466Z,1.35
2018-06-27T18:44:58.093Z,1.47
2018-06-27T18:47:26.622Z,1.27
2018-06-27T18:49:55.206Z,1.70
2018-06-27T18:52:23.850Z,1.50
2018-06-27T18:54:52.513Z,1.40
2018-06-27T18:57:21.888Z,1.30
2018-06-27T18:59:50.446Z,1.30
2018-06-27T19:02:19.385Z,1.30
2018-06-27T19:04:48.050Z,1.25
2018-06-27T19:07:16.996Z,1.30
2018-06-27T19:09:45.508Z,1.70
2018-06-27T19:12:14.101Z,1.40
2018-06-27T19:14:42.725Z,1.50
2018-06-27T19:17:11.317Z,1.40
2018-06-27T19:19:39.856Z,1.30
2018-06-27T19:22:09.389Z,1.30
2018-06-27T19:24:38.209Z,1.55
2018-06-27T19:27:06.775Z,1.47
2018-06-27T19:29:36.547Z,1.55
2018-06-27T19:32:05.514Z,1.90
2018-06-27T19:34:34.250Z,1.72
2018-06-27T19:37:02.775Z,1.92
2018-06-27T19:39:37.459Z,2.00
2018-06-27T19:41:59.841Z,2.00
2018-06-27T19:44:29.024Z,1.75
2018-06-27T19:46:57.590Z,2.12
2018-06-27T19:49:26.274Z,2.58
2018-06-27T19:51:55.003Z,2.80
2018-06-27T19:54:23.700Z,3.47
2018-06-27T19:56:52.300Z,6.17
2018-06-27T19:59:20.949Z,8.35
2018-06-27T20:01:49.554Z,7.17
2018-06-27T20:04:19.299Z,6.53
2018-06-27T20:06:47.831Z,5.15
2018-06-27T20:09:16.506Z,4.20
2018-06-27T20:11:46.144Z,4.83
2018-06-27T20:14:16.026Z,4.60
2018-06-27T20:16:44.536Z,4.80
2018-06-27T20:19:13.688Z,4.70
2018-06-27T20:21:42.227Z,4.55
2018-06-27T20:24:11.755Z,4.85
2018-06-27T20:26:41.858Z,5.05
2018-06-27T20:29:12.387Z,5.90
2018-06-27T20:31:42.014Z,6.65
2018-06-27T20:34:10.598Z,5.90
2018-06-27T20:36:39.808Z,5.72
2018-06-27T20:39:10.122Z,5.12
2018-06-27T20:41:40.465Z,4.90
2018-06-27T20:44:09.307Z,4.12
2018-06-27T20:46:39.417Z,4.12
2018-06-27T20:49:08.259Z,4.25
2018-06-27T20:51:36.885Z,3.83
2018-06-27T20:54:06.259Z,3.33
2018-06-27T20:56:34.815Z,3.15
2018-06-27T20:59:03.586Z,4.35
2018-06-27T21:01:32.198Z,4.28
2018-06-27T21:04:01.800Z,4.40
2018-06-27T21:06:30.383Z,3.98
2018-06-27T21:08:58.933Z,3.62
2018-06-27T21:11:28.092Z,3.92
2018-06-27T21:13:56.630Z,3.72
2018-06-27T21:16:25.749Z,3.95
2018-06-27T21:18:54.339Z,3.55
2018-06-27T21:21:23.155Z,3.55
2018-06-27T21:23:51.694Z,3.40
2018-06-27T21:26:20.431Z,3.20
2018-06-27T21:28:49.068Z,3.37
2018-06-27T21:31:17.743Z,3.02
2018-06-27T21:33:46.321Z,3.17
2018-06-27T21:36:14.893Z,3.90
2018-06-27T21:38:44.545Z,4.37
2018-06-27T21:41:13.724Z,4.58
2018-06-27T21:43:42.281Z,4.40
2018-06-27T21:46:10.901Z,4.03
2018-06-27T22:01:32.595Z,4.70
